Time;durP1;ratioP1;P1;durP2;ratioP2;P2;SDS_P1;SDS_P2;PMS_P1;PMS_P2;Temp;Humidity;BMP_temperature;BMP_pressure;BME280_temperature;BME280_humidity;BME280_pressure;Samples;Min_cycle;Max_cycle;Signal;HPM_P1;HPM_P2
2022/05/22 00:01:29;;;;;;;5.60;3.43;;;;;;;21.54;63.63;98658.25;5152132;27;20225;-79
2022/05/22 00:03:56;;;;;;;7.33;3.87;;;;;;;21.45;63.08;98666.19;5151986;27;20195;-84
2022/05/22 00:06:23;;;;;;;5.97;3.90;;;;;;;21.39;64.20;98666.16;5152049;27;20231;-79
2022/05/22 00:08:50;;;;;;;5.00;3.70;;;;;;;21.33;64.22;98662.50;5152096;27;20231;-84
2022/05/22 00:11:17;;;;;;;5.20;3.70;;;;;;;21.31;64.59;98661.88;5152008;27;20658;-80
2022/05/22 00:13:44;;;;;;;4.87;3.70;;;;;;;21.24;64.44;98668.84;5151836;27;20213;-84
2022/05/22 00:18:56;;;;;;;4.97;3.60;;;;;;;21.02;64.56;98663.66;5151001;27;20193;-84
2022/05/22 00:21:23;;;;;;;6.70;3.77;;;;;;;21.02;65.23;98658.47;5152059;27;20226;-85
2022/05/22 00:23:50;;;;;;;7.23;3.90;;;;;;;20.97;65.11;98663.44;5151795;27;20219;-85
2022/05/22 00:26:17;;;;;;;6.50;3.63;;;;;;;20.95;64.97;98660.22;5151704;27;20229;-80
2022/05/22 00:28:44;;;;;;;5.07;3.60;;;;;;;20.89;65.68;98655.78;5151575;27;20225;-84
2022/05/22 00:31:11;;;;;;;4.60;3.23;;;;;;;20.92;65.22;98660.59;5151451;27;20202;-79
2022/05/22 00:33:38;;;;;;;7.43;3.80;;;;;;;20.85;64.79;98659.72;5151604;27;20226;-80
2022/05/22 00:36:07;;;;;;;5.53;3.60;;;;;;;20.83;64.76;98669.53;5151563;27;20207;-79
2022/05/22 00:38:33;;;;;;;6.57;3.83;;;;;;;20.83;64.50;98666.94;5151551;27;20202;-84
2022/05/22 00:41:01;;;;;;;5.80;3.30;;;;;;;20.82;64.11;98664.50;5151290;27;20712;-83
2022/05/22 00:43:30;;;;;;;5.43;3.33;;;;;;;20.78;64.36;98664.88;5151537;27;20285;-80
2022/05/22 00:45:58;;;;;;;5.20;3.40;;;;;;;20.74;64.20;98663.66;5151484;27;20657;-85
2022/05/22 00:48:25;;;;;;;5.40;3.23;;;;;;;20.92;63.71;98665.78;5151299;27;20238;-84
2022/05/22 00:50:56;;;;;;;4.13;3.13;;;;;;;20.79;62.56;98666.47;5151400;27;20201;-80
2022/05/22 00:53:25;;;;;;;5.17;3.00;;;;;;;20.78;61.56;98674.47;5151730;27;20688;-84
2022/05/22 00:55:52;;;;;;;3.97;2.90;;;;;;;20.82;61.19;98675.69;5151362;27;20326;-80
2022/05/22 00:58:23;;;;;;;4.97;3.00;;;;;;;20.74;61.39;98673.22;5150968;27;20218;-80
2022/05/22 01:00:50;;;;;;;4.43;2.77;;;;;;;20.71;61.91;98676.19;5151317;27;20585;-84
2022/05/22 01:03:28;;;;;;;5.83;2.80;;;;;;;20.70;61.75;98677.19;5150985;27;20216;-83
2022/05/22 01:05:57;;;;;;;3.80;2.93;;;;;;;20.60;61.58;98676.72;5151218;27;20206;-80
2022/05/22 01:08:25;;;;;;;4.97;2.60;;;;;;;20.52;61.96;98675.81;5150514;27;20229;-80
2022/05/22 01:10:56;;;;;;;4.83;2.90;;;;;;;20.47;61.66;98675.53;5151122;27;20202;-84
2022/05/22 01:13:28;;;;;;;6.67;2.90;;;;;;;20.40;61.96;98682.47;5151167;27;20221;-83
2022/05/22 01:15:55;;;;;;;3.10;2.60;;;;;;;20.35;61.25;98669.22;5150750;27;20471;-84
2022/05/22 01:18:22;;;;;;;5.53;2.70;;;;;;;20.30;62.14;98674.97;5151089;27;20201;-83
2022/05/22 01:20:52;;;;;;;5.33;2.90;;;;;;;20.24;62.07;98672.28;5150424;27;20589;-80
2022/05/22 01:23:22;;;;;;;6.57;2.63;;;;;;;20.17;61.87;98677.41;5151137;27;20214;-83
2022/05/22 01:25:49;;;;;;;4.20;2.70;;;;;;;20.10;62.12;98679.94;5150626;27;20192;-84
2022/05/22 01:28:18;;;;;;;4.80;2.80;;;;;;;20.12;62.23;98685.75;5150773;27;20374;-84
2022/05/22 01:30:45;;;;;;;3.60;2.70;;;;;;;20.07;61.49;98682.91;5153204;27;20686;-82
2022/05/22 01:33:12;;;;;;;5.40;2.67;;;;;;;20.02;61.77;98677.44;5154889;27;20248;-83
2022/05/22 01:35:39;;;;;;;5.30;2.67;;;;;;;19.97;61.90;98681.56;5154816;27;20196;-80
2022/05/22 01:38:06;;;;;;;3.30;2.47;;;;;;;19.93;61.94;98683.72;5154983;27;20624;-82
2022/05/22 01:40:34;;;;;;;3.53;2.53;;;;;;;19.93;62.36;98686.31;5154633;27;20479;-79
2022/05/22 01:43:01;;;;;;;5.57;3.07;;;;;;;19.90;62.11;98691.88;5155118;27;20224;-80
2022/05/22 01:45:29;;;;;;;6.33;2.80;;;;;;;19.81;62.33;98692.94;5154799;27;20234;-83
2022/05/22 01:47:56;;;;;;;4.13;2.63;;;;;;;19.73;61.64;98688.66;5154733;27;20224;-82
2022/05/22 01:50:23;;;;;;;3.63;2.60;;;;;;;19.71;61.12;98687.22;5154478;27;20250;-80
2022/05/22 01:52:50;;;;;;;3.37;2.67;;;;;;;19.72;61.76;98686.22;5154471;27;20235;-84
2022/05/22 01:55:17;;;;;;;5.73;3.17;;;;;;;19.70;61.71;98688.22;5154595;27;20198;-83
2022/05/22 01:57:45;;;;;;;5.10;2.67;;;;;;;19.61;61.60;98685.69;5154870;27;20220;-83
2022/05/22 02:00:16;;;;;;;3.97;2.53;;;;;;;19.59;61.62;98685.03;5154691;27;20199;-82
2022/05/22 02:02:43;;;;;;;4.30;2.70;;;;;;;19.60;61.53;98686.63;5154424;27;20212;-83
2022/05/22 02:05:11;;;;;;;5.00;2.50;;;;;;;19.54;62.02;98695.13;5154354;27;20211;-83
2022/05/22 02:10:24;;;;;;;3.97;2.63;;;;;;;19.39;63.01;98689.13;5154565;27;20753;-83
2022/05/22 02:12:53;;;;;;;4.50;2.63;;;;;;;19.36;62.67;98689.50;5154047;27;20307;-79
2022/05/22 02:15:21;;;;;;;5.00;2.60;;;;;;;19.31;63.03;98697.78;5154269;27;20514;-79
2022/05/22 02:17:48;;;;;;;5.80;2.53;;;;;;;19.23;63.75;98696.09;5153986;27;20222;-80
2022/05/22 02:20:15;;;;;;;3.77;2.80;;;;;;;19.20;64.16;98688.66;5153932;27;20280;-83
2022/05/22 02:22:44;;;;;;;4.13;2.57;;;;;;;19.15;64.65;98688.38;5154192;27;20220;-82
2022/05/22 02:25:11;;;;;;;3.20;2.77;;;;;;;19.08;64.34;98689.25;5154096;27;20195;-79
2022/05/22 02:27:38;;;;;;;4.53;2.83;;;;;;;19.09;65.22;98691.69;5153832;27;20589;-80
2022/05/22 02:30:08;;;;;;;5.87;2.73;;;;;;;19.02;65.33;98688.16;5154028;27;20612;-79
2022/05/22 02:32:37;;;;;;;4.13;2.53;;;;;;;18.93;65.52;98704.75;5153925;27;20260;-83
2022/05/22 02:35:05;;;;;;;4.17;2.80;;;;;;;18.91;66.30;98701.56;5153807;27;20234;-83
2022/05/22 02:37:32;;;;;;;7.27;2.93;;;;;;;18.89;65.98;98708.69;5153617;27;20718;-79
2022/05/22 02:39:59;;;;;;;4.17;2.80;;;;;;;18.90;65.89;98699.94;5153653;27;20289;-83
2022/05/22 02:42:26;;;;;;;4.07;2.70;;;;;;;18.84;65.97;98703.22;5152688;27;20222;-79
2022/05/22 02:44:53;;;;;;;4.27;2.70;;;;;;;18.75;65.83;98712.81;5153910;27;20201;-80
2022/05/22 02:47:21;;;;;;;4.63;2.80;;;;;;;18.80;65.55;98705.34;5153824;27;20754;-79
2022/05/22 02:49:48;;;;;;;3.77;2.67;;;;;;;18.78;65.48;98705.50;5153290;27;20225;-84
2022/05/22 02:52:15;;;;;;;4.83;2.90;;;;;;;18.72;65.25;98713.94;5153636;27;20236;-79
2022/05/22 02:54:41;;;;;;;4.53;3.00;;;;;;;18.78;65.38;98713.28;5153613;27;20566;-83
2022/05/22 02:57:08;;;;;;;5.33;2.70;;;;;;;18.77;65.47;98716.84;5153506;27;20699;-79
2022/05/22 02:59:35;;;;;;;5.87;3.00;;;;;;;18.71;65.44;98722.69;5153837;27;20206;-80
2022/05/22 03:02:02;;;;;;;3.93;2.70;;;;;;;18.72;65.82;98721.72;5153414;27;20237;-83
2022/05/22 03:04:31;;;;;;;5.37;2.40;;;;;;;18.70;65.84;98726.28;5153217;27;20195;-80
2022/05/22 03:06:58;;;;;;;5.93;2.53;;;;;;;18.68;66.05;98724.84;5153039;27;20230;-80
2022/05/22 03:09:25;;;;;;;7.87;2.60;;;;;;;18.65;65.70;98730.34;5153294;27;20249;-83
2022/05/22 03:11:53;;;;;;;4.07;2.73;;;;;;;18.68;65.51;98722.25;5153414;27;20219;-83
2022/05/22 03:14:19;;;;;;;4.03;2.70;;;;;;;18.61;65.95;98729.88;5153128;27;20680;-80
2022/05/22 03:16:46;;;;;;;5.90;2.57;;;;;;;18.56;65.94;98724.41;5153420;27;20660;-82
2022/05/22 03:19:14;;;;;;;6.93;2.80;;;;;;;18.62;65.79;98728.91;5152853;27;20194;-80
2022/05/22 03:21:43;;;;;;;3.93;2.40;;;;;;;18.60;65.99;98728.25;5153010;27;20631;-79
2022/05/22 03:24:10;;;;;;;9.07;3.00;;;;;;;18.64;66.35;98731.31;5152787;27;20696;-80
2022/05/22 03:26:37;;;;;;;7.50;2.93;;;;;;;18.64;66.21;98721.75;5153007;27;20217;-80
2022/05/22 03:29:03;;;;;;;6.80;2.63;;;;;;;18.70;66.50;98730.63;5152741;27;20622;-79
2022/05/22 03:31:30;;;;;;;3.50;2.67;;;;;;;18.75;66.80;98723.19;5152877;27;20224;-83
2022/05/22 03:33:57;;;;;;;4.17;2.80;;;;;;;18.77;66.42;98722.03;5152545;27;20200;-82
2022/05/22 03:36:24;;;;;;;5.27;2.60;;;;;;;18.83;66.83;98719.75;5152487;27;20648;-83
2022/05/22 03:38:52;;;;;;;5.47;2.70;;;;;;;18.92;66.82;98708.34;5152710;27;20608;-83
2022/05/22 03:41:19;;;;;;;5.97;2.63;;;;;;;18.95;65.84;98713.16;5152890;27;20223;-80
2022/05/22 03:43:46;;;;;;;4.63;2.63;;;;;;;18.99;65.21;98715.25;5152185;27;20723;-82
2022/05/22 03:46:13;;;;;;;5.17;3.20;;;;;;;19.05;65.64;98718.91;5152406;27;20746;-80
2022/05/22 03:48:42;;;;;;;5.00;2.73;;;;;;;19.14;64.69;98727.41;5152415;27;20208;-83
2022/05/22 03:51:09;;;;;;;5.83;2.70;;;;;;;19.20;64.31;98721.56;5152074;27;20199;-83
2022/05/22 03:53:36;;;;;;;9.37;5.57;;;;;;;19.16;64.80;98721.09;5152511;27;20210;-82
2022/05/22 03:56:11;;;;;;;16.57;9.67;;;;;;;19.19;64.74;98715.56;5152118;27;20199;-79
2022/05/22 03:58:38;;;;;;;15.67;7.47;;;;;;;19.23;64.28;98716.84;5152170;27;20573;-83
2022/05/22 04:01:06;;;;;;;6.63;3.80;;;;;;;19.25;64.66;98724.41;5151920;27;20203;-83
2022/05/22 04:03:34;;;;;;;4.80;3.17;;;;;;;19.36;64.04;98725.78;5152222;27;20198;-80
2022/05/22 04:06:02;;;;;;;7.27;3.53;;;;;;;19.44;64.65;98723.13;5151777;27;20264;-82
2022/05/22 04:08:29;;;;;;;10.83;5.20;;;;;;;19.46;64.01;98721.16;5152205;27;20231;-80
2022/05/22 04:10:56;;;;;;;13.93;5.07;;;;;;;19.49;63.51;98726.00;5151801;27;20234;-82
2022/05/22 04:13:24;;;;;;;16.23;5.50;;;;;;;19.52;63.95;98725.66;5152020;27;20203;-82
2022/05/22 04:15:51;;;;;;;14.97;6.57;;;;;;;19.59;64.51;98721.34;5152040;27;20205;-80
2022/05/22 04:18:18;;;;;;;10.13;4.87;;;;;;;19.67;63.42;98712.72;5151853;27;20235;-82
2022/05/22 04:20:45;;;;;;;9.20;4.83;;;;;;;19.66;63.08;98727.47;5151835;27;20209;-80
2022/05/22 04:25:58;;;;;;;9.07;3.87;;;;;;;19.70;62.98;98727.94;5151781;27;20229;-80
2022/05/22 04:28:28;;;;;;;9.53;4.47;;;;;;;19.80;63.65;98727.66;5151843;27;20571;-83
2022/05/22 04:30:56;;;;;;;37.13;12.93;;;;;;;19.83;63.03;98724.69;5151875;27;20228;-80
2022/05/22 04:33:23;;;;;;;60.63;22.37;;;;;;;19.94;62.58;98729.44;5151910;27;20303;-83
2022/05/22 04:35:50;;;;;;;39.77;15.73;;;;;;;19.96;62.42;98727.47;5151391;27;20203;-80
2022/05/22 04:38:17;;;;;;;10.70;5.63;;;;;;;19.98;63.62;98720.31;5151268;27;20842;-83
2022/05/22 04:40:53;;;;;;;8.60;3.10;;;;;;;20.12;64.48;98726.47;5151483;27;20637;-83
2022/05/22 04:43:19;;;;;;;5.73;2.67;;;;;;;20.19;63.36;98721.34;5151323;27;20500;-82
2022/05/22 04:45:48;;;;;;;3.67;2.40;;;;;;;20.37;65.51;98719.19;5151416;27;20203;-79
2022/05/22 04:48:15;;;;;;;5.27;2.70;;;;;;;20.38;63.55;98720.78;5151196;27;20217;-79
2022/05/22 04:50:41;;;;;;;6.27;3.07;;;;;;;20.34;62.81;98729.94;5151082;27;20863;-79
2022/05/22 04:53:08;;;;;;;5.73;2.97;;;;;;;20.38;62.65;98731.16;5151097;27;20754;-78
2022/05/22 04:55:35;;;;;;;6.50;3.33;;;;;;;20.43;61.54;98726.25;5150975;27;20197;-78
2022/05/22 04:58:02;;;;;;;7.23;3.27;;;;;;;20.50;61.21;98729.69;5151105;27;20221;-78
2022/05/22 05:00:28;;;;;;;9.30;3.83;;;;;;;20.55;60.55;98731.78;5151092;27;20210;-78
2022/05/22 05:02:57;;;;;;;7.73;4.00;;;;;;;20.61;60.69;98733.66;5151300;27;20301;-78
2022/05/22 05:05:24;;;;;;;3.93;3.10;;;;;;;20.55;60.15;98734.38;5150980;27;20221;-79
2022/05/22 05:07:50;;;;;;;4.40;2.90;;;;;;;20.61;60.71;98735.44;5150801;27;20228;-78
2022/05/22 05:10:17;;;;;;;3.83;2.60;;;;;;;20.63;61.03;98736.09;5150866;27;20229;-79
2022/05/22 05:12:44;;;;;;;4.80;2.60;;;;;;;20.83;61.38;98734.50;5150818;27;20232;-78
2022/05/22 05:15:13;;;;;;;3.47;2.47;;;;;;;20.84;59.64;98725.69;5150906;27;20203;-78
2022/05/22 05:17:41;;;;;;;3.53;2.53;;;;;;;20.93;59.37;98724.56;5150781;27;20221;-78
2022/05/22 05:20:10;;;;;;;3.20;2.33;;;;;;;20.85;58.20;98716.09;5150837;27;20198;-78
2022/05/22 05:22:37;;;;;;;4.30;2.30;;;;;;;20.84;57.95;98730.88;5150842;27;20218;-79
2022/05/22 05:25:04;;;;;;;4.50;2.33;;;;;;;20.82;58.37;98735.47;5150855;27;20285;-78
2022/05/22 05:27:31;;;;;;;3.30;2.33;;;;;;;20.81;59.18;98741.66;5150942;27;20214;-78
2022/05/22 05:29:58;;;;;;;5.63;2.50;;;;;;;20.77;57.03;98735.22;5151215;27;20234;-78
2022/05/22 05:32:25;;;;;;;4.50;2.37;;;;;;;20.76;57.84;98731.81;5150952;27;20638;-78
2022/05/22 05:34:57;;;;;;;3.73;2.47;;;;;;;20.75;56.27;98739.78;5150757;27;20629;-78
2022/05/22 05:37:25;;;;;;;4.63;2.50;;;;;;;20.70;54.88;98739.53;5150776;27;20246;-79
2022/05/22 05:39:53;;;;;;;5.13;2.33;;;;;;;20.72;56.01;98732.38;5150733;27;20667;-79
2022/05/22 05:42:20;;;;;;;6.73;2.40;;;;;;;20.78;54.95;98736.81;5150752;27;20223;-79
2022/05/22 05:44:47;;;;;;;7.73;2.73;;;;;;;20.84;54.64;98724.91;5150636;27;20213;-78
2022/05/22 05:47:14;;;;;;;5.93;2.73;;;;;;;20.92;55.14;98733.38;5150691;27;20221;-78
2022/05/22 05:49:41;;;;;;;5.40;2.67;;;;;;;20.98;55.32;98732.63;5150492;27;20233;-79
2022/05/22 05:52:09;;;;;;;3.03;2.50;;;;;;;20.96;55.21;98745.00;5150887;27;20222;-78
2022/05/22 05:54:37;;;;;;;3.87;2.40;;;;;;;20.89;55.13;98749.34;5150519;27;20194;-78
2022/05/22 05:57:04;;;;;;;4.37;2.30;;;;;;;20.96;55.02;98759.78;5150332;27;20216;-79
2022/05/22 05:59:33;;;;;;;2.20;1.90;;;;;;;20.98;52.50;98756.00;5150670;27;20193;-79
2022/05/22 06:02:00;;;;;;;7.13;2.13;;;;;;;21.08;51.96;98747.91;5150415;27;20233;-79
2022/05/22 06:04:27;;;;;;;3.13;2.10;;;;;;;21.21;52.28;98745.41;5150877;27;20699;-79
2022/05/22 06:06:54;;;;;;;4.13;2.20;;;;;;;21.24;50.69;98752.03;5150291;27;20231;-79
2022/05/22 06:09:21;;;;;;;5.43;2.23;;;;;;;21.31;52.15;98752.88;5150374;27;20207;-79
2022/05/22 06:11:49;;;;;;;4.50;2.07;;;;;;;21.30;52.45;98750.50;5150718;27;20219;-78
2022/05/22 06:14:16;;;;;;;6.40;2.30;;;;;;;21.72;54.69;98744.41;5150369;27;20195;-79
2022/05/22 06:16:44;;;;;;;5.47;2.33;;;;;;;22.01;51.77;98750.38;5150722;27;20210;-79
2022/05/22 06:19:11;;;;;;;6.87;2.30;;;;;;;22.31;51.77;98749.16;5153849;27;20204;-79
2022/05/22 06:21:37;;;;;;;5.67;2.50;;;;;;;22.77;50.47;98742.44;5153514;27;20606;-80
2022/05/22 06:24:05;;;;;;;11.03;2.30;;;;;;;23.34;49.79;98748.94;5154048;27;20205;-79
2022/05/22 06:26:32;;;;;;;7.57;2.40;;;;;;;23.95;49.27;98760.91;5153867;27;20245;-79
2022/05/22 06:29:00;;;;;;;6.72;2.25;;;;;;;24.20;47.81;98747.16;5154032;27;20215;-79
2022/05/22 06:31:28;;;;;;;4.35;2.45;;;;;;;24.57;48.14;98751.66;5153686;27;20722;-81
2022/05/22 06:33:55;;;;;;;10.20;2.50;;;;;;;25.11;47.71;98739.03;5153459;27;20207;-81
2022/05/22 06:36:22;;;;;;;4.25;2.60;;;;;;;25.47;45.99;98743.56;5154033;27;20629;-78
2022/05/22 06:41:33;;;;;;;5.10;2.00;;;;;;;26.01;43.57;98737.84;5153605;27;20606;-81
2022/05/22 06:44:02;;;;;;;2.97;2.10;;;;;;;26.10;41.67;98736.50;5153846;27;20219;-84
2022/05/22 06:46:31;;;;;;;3.33;2.05;;;;;;;26.32;42.62;98728.97;5153711;27;20220;-84
2022/05/22 06:48:58;;;;;;;5.65;2.30;;;;;;;26.70;42.91;98720.78;5153627;27;20196;-84
2022/05/22 06:51:25;;;;;;;8.02;2.42;;;;;;;26.93;42.71;98717.41;5153786;27;20238;-83
2022/05/22 06:53:52;;;;;;;12.15;2.88;;;;;;;27.33;41.50;98721.25;5153485;27;20196;-78
2022/05/22 06:56:18;;;;;;;5.47;2.10;;;;;;;27.59;40.93;98723.41;5153383;27;20809;-78
2022/05/22 06:58:45;;;;;;;7.00;2.05;;;;;;;27.64;40.57;98714.84;5153458;27;20582;-81
2022/05/22 07:01:16;;;;;;;3.53;1.90;;;;;;;27.94;39.53;98720.75;5153218;27;20196;-85
2022/05/22 07:03:43;;;;;;;5.32;2.10;;;;;;;27.98;38.02;98710.56;5153379;27;20235;-83
2022/05/22 07:06:10;;;;;;;7.35;2.10;;;;;;;28.02;37.71;98701.19;5152933;27;20196;-83
2022/05/22 07:08:37;;;;;;;4.38;2.13;;;;;;;28.27;38.12;98697.44;5153393;27;20207;-78
2022/05/22 07:13:47;;;;;;;4.82;1.83;;;;;;;28.75;34.14;98698.81;5153254;27;20289;-83
2022/05/22 07:16:15;;;;;;;9.82;2.13;;;;;;;28.85;35.49;98691.88;5153041;27;20211;-83
2022/05/22 07:18:42;;;;;;;11.85;2.25;;;;;;;28.95;34.36;98688.63;5153049;27;20370;-86
2022/05/22 07:21:09;;;;;;;10.40;2.50;;;;;;;29.16;36.48;98691.59;5153156;27;20200;-82
2022/05/22 07:23:36;;;;;;;5.07;2.17;;;;;;;29.25;36.58;98692.75;5153019;27;20204;-86
2022/05/22 07:26:05;;;;;;;9.60;2.17;;;;;;;29.18;34.92;98697.41;5152722;27;20193;-80
2022/05/22 07:28:32;;;;;;;7.28;2.30;;;;;;;28.98;37.75;98693.41;5152413;27;20200;-82
2022/05/22 07:30:58;;;;;;;11.00;3.05;;;;;;;28.92;38.41;98694.38;5152576;27;20223;-77
2022/05/22 07:33:26;;;;;;;11.98;2.70;;;;;;;27.60;48.39;98690.84;5152609;27;20200;-77
2022/05/22 07:35:55;;;;;;;8.50;2.35;;;;;;;24.09;57.31;98683.34;5152768;27;20207;-81
2022/05/22 07:38:22;;;;;;;8.45;2.63;;;;;;;22.22;61.49;98682.56;5152547;27;20232;-78
2022/05/22 07:40:49;;;;;;;5.63;2.67;;;;;;;21.38;61.86;98690.53;5152901;27;20295;-80
2022/05/22 07:43:16;;;;;;;4.97;2.67;;;;;;;21.30;71.91;98670.69;5152591;27;20246;-79
2022/05/22 07:45:43;;;;;;;7.60;2.40;;;;;;;21.59;65.07;98661.09;5152639;27;20203;-80
2022/05/22 07:48:10;;;;;;;14.80;2.47;;;;;;;22.40;63.71;98666.41;5152454;27;20219;-80
2022/05/22 07:50:38;;;;;;;10.38;2.65;;;;;;;23.41;57.06;98666.22;5152607;27;20227;-79
2022/05/22 07:53:05;;;;;;;17.63;3.00;;;;;;;24.20;51.82;98658.34;5152400;27;20266;-79
2022/05/22 07:55:32;;;;;;;6.07;2.25;;;;;;;25.00;51.82;98659.44;5151332;27;20200;-78
2022/05/22 07:57:59;;;;;;;5.00;2.10;;;;;;;25.53;47.66;98653.69;5152412;27;20219;-75
2022/05/22 08:00:26;;;;;;;4.47;2.42;;;;;;;25.91;47.76;98650.06;5152798;27;20674;-80
2022/05/22 08:02:53;;;;;;;16.73;2.55;;;;;;;26.21;43.16;98644.06;5152492;27;20721;-81
2022/05/22 08:05:21;;;;;;;10.63;2.33;;;;;;;26.44;42.46;98648.53;5152166;27;20203;-75
2022/05/22 08:07:49;;;;;;;4.95;2.15;;;;;;;26.61;41.30;98651.34;5151324;27;20235;-76
2022/05/22 08:10:18;;;;;;;4.22;2.00;;;;;;;26.76;38.76;98636.00;5151478;27;20224;-82
2022/05/22 08:12:48;;;;;;;4.63;1.83;;;;;;;27.02;38.96;98639.16;5151158;27;20259;-75
2022/05/22 08:15:18;;;;;;;10.93;2.00;;;;;;;27.34;37.52;98631.75;5151925;27;20200;-75
2022/05/22 08:17:46;;;;;;;5.10;1.63;;;;;;;27.59;39.18;98634.13;5151604;27;20216;-77
2022/05/22 08:20:15;;;;;;;6.88;2.33;;;;;;;27.71;38.08;98632.25;5151911;27;20629;-82
2022/05/22 08:22:44;;;;;;;4.55;2.05;;;;;;;27.99;37.88;98625.44;5151705;27;20737;-82
2022/05/22 08:25:13;;;;;;;4.15;2.03;;;;;;;28.11;35.90;98631.44;5151615;27;20286;-81
2022/05/22 08:27:40;;;;;;;3.90;2.13;;;;;;;28.24;36.50;98629.56;5152069;27;20212;-81
2022/05/22 08:30:08;;;;;;;4.35;2.10;;;;;;;28.37;37.20;98618.75;5151383;27;20207;-74
2022/05/22 08:32:37;;;;;;;5.28;2.22;;;;;;;28.40;36.31;98613.00;5151387;27;20226;-78
2022/05/22 08:35:05;;;;;;;5.60;2.00;;;;;;;28.29;37.05;98616.50;5151449;27;20222;-81
2022/05/22 08:37:32;;;;;;;8.43;2.20;;;;;;;28.47;40.39;98620.75;5151243;27;20216;-82
2022/05/22 08:39:59;;;;;;;4.53;2.00;;;;;;;28.55;36.62;98613.28;5151333;27;20200;-74
2022/05/22 08:42:36;;;;;;;4.68;1.90;;;;;;;28.47;37.30;98608.41;5151378;27;20306;-81
2022/05/22 08:45:10;;;;;;;3.63;1.90;;;;;;;28.81;40.15;98608.41;5151701;27;20195;-78
2022/05/22 08:47:40;;;;;;;6.88;2.10;;;;;;;29.19;37.79;98594.47;5151494;27;20241;-75
2022/05/22 08:50:10;;;;;;;3.22;1.70;;;;;;;29.19;37.42;98593.69;5151602;27;20195;-77
2022/05/22 08:52:41;;;;;;;7.45;2.00;;;;;;;29.33;37.00;98597.53;5151437;27;20216;-76
2022/05/22 08:55:13;;;;;;;6.88;2.05;;;;;;;29.37;37.01;98600.47;5151168;27;20204;-81
2022/05/22 09:00:30;;;;;;;5.95;2.33;;;;;;;29.64;36.50;98575.03;5151109;27;20183;-78
2022/05/22 09:03:01;;;;;;;3.90;2.20;;;;;;;29.58;34.93;98580.44;5151011;27;20229;-78
2022/05/22 09:05:31;;;;;;;14.98;2.17;;;;;;;29.47;35.80;98580.34;5151248;27;20222;-78
2022/05/22 09:08:03;;;;;;;5.78;2.10;;;;;;;29.62;35.46;98571.00;5151341;27;20612;-78
2022/05/22 09:10:50;;;;;;;3.75;1.80;;;;;;;29.58;34.37;98575.16;5150815;27;20627;-77
2022/05/22 09:13:31;;;;;;;5.47;2.22;;;;;;;29.67;34.73;98581.59;5150834;27;20247;-78
2022/05/22 09:16:06;;;;;;;4.88;1.90;;;;;;;29.63;33.77;98568.16;5151342;27;20204;-80
2022/05/22 09:18:36;;;;;;;6.75;1.77;;;;;;;29.76;33.76;98564.34;5151131;27;20203;-80
2022/05/22 09:21:12;;;;;;;7.03;2.20;;;;;;;29.90;34.12;98552.31;5150940;27;20199;-78
2022/05/22 09:24:01;;;;;;;5.00;2.00;;;;;;;30.29;32.21;98548.75;5151317;27;20180;-82
2022/05/22 09:26:53;;;;;;;5.10;1.90;;;;;;;30.41;32.50;98550.13;5148168;27;20323;-79
2022/05/22 09:29:41;;;;;;;2.50;1.83;;;;;;;30.53;33.10;98549.94;5147037;27;20288;-77
2022/05/22 09:32:19;;;;;;;4.22;2.00;;;;;;;30.50;31.59;98528.56;5150233;27;20228;-77
2022/05/22 09:34:56;;;;;;;4.50;2.35;;;;;;;30.51;30.83;98536.22;5150587;27;20200;-77
2022/05/22 09:37:32;;;;;;;3.55;1.90;;;;;;;30.34;31.27;98527.66;5151050;27;20236;-81
2022/05/22 09:40:15;;;;;;;5.30;1.70;;;;;;;30.53;31.43;98528.06;5151034;27;20191;-82
2022/05/22 09:43:00;;;;;;;3.63;1.75;;;;;;;30.70;30.77;98533.97;5150935;27;20704;-78
2022/05/22 09:45:41;;;;;;;3.03;1.85;;;;;;;30.72;31.56;98521.31;5150955;27;20244;-80
2022/05/22 09:48:56;;;;;;;4.60;1.80;;;;;;;30.81;31.34;98513.75;5150491;27;20212;-82
2022/05/22 09:51:32;;;;;;;8.55;2.17;;;;;;;30.88;30.83;98504.50;5148431;27;20235;-78
2022/05/22 09:54:14;;;;;;;6.43;2.15;;;;;;;31.15;31.79;98508.84;5154905;27;20203;-78
2022/05/22 09:56:53;;;;;;;3.75;2.00;;;;;;;31.28;30.24;98497.78;5154515;27;20216;-83
2022/05/22 09:59:48;;;;;;;3.17;2.00;;;;;;;31.31;28.71;98502.56;5154404;27;20269;-81
2022/05/22 10:02:24;;;;;;;9.95;2.40;;;;;;;31.29;30.14;98494.09;5154573;27;20652;-78
2022/05/22 10:05:04;;;;;;;4.45;2.00;;;;;;;31.21;29.20;98491.16;5154489;27;20516;-78
2022/05/22 10:07:42;;;;;;;4.38;1.98;;;;;;;30.80;28.83;98486.53;5154840;27;20231;-85
2022/05/22 10:10:19;;;;;;;5.68;1.90;;;;;;;30.93;29.02;98490.56;5154685;27;20282;-78
2022/05/22 10:13:03;;;;;;;6.88;1.90;;;;;;;30.74;29.55;98492.81;5153943;27;20234;-78
2022/05/22 10:15:43;;;;;;;6.20;1.88;;;;;;;30.62;28.58;98500.13;5154382;27;20623;-83
2022/05/22 10:18:33;;;;;;;5.32;1.85;;;;;;;30.99;31.52;98484.25;5154209;27;20230;-82
2022/05/22 10:21:11;;;;;;;2.00;1.55;;;;;;;31.24;28.56;98483.53;5154112;27;20658;-83
2022/05/22 10:24:17;;;;;;;4.60;1.70;;;;;;;31.13;28.88;98476.63;5154356;27;20211;-86
2022/05/22 10:26:58;;;;;;;3.22;1.60;;;;;;;31.18;28.64;98494.31;5134679;27;20234;-82
2022/05/22 10:29:31;;;;;;;5.13;1.63;;;;;;;31.26;27.57;98481.41;5154445;27;20200;-83
2022/05/22 10:32:02;;;;;;;11.02;2.00;;;;;;;31.19;27.85;98475.59;5153699;27;20262;-79
2022/05/22 10:34:40;;;;;;;15.43;2.15;;;;;;;30.81;27.10;98487.34;5155376;27;20196;-83
2022/05/22 10:37:21;;;;;;;10.57;1.67;;;;;;;30.41;27.78;98473.66;5154131;27;20228;-83
2022/05/22 10:39:47;;;;;;;6.85;1.80;;;;;;;30.38;27.76;98474.16;5153603;27;20207;-83
2022/05/22 10:45:11;;;;;;;4.78;1.60;;;;;;;30.29;27.96;98474.91;5153998;27;20296;-77
2022/05/22 10:47:38;;;;;;;5.32;1.80;;;;;;;30.40;28.79;98477.34;5153928;27;20212;-82
2022/05/22 10:50:19;;;;;;;4.13;1.60;;;;;;;30.40;27.86;98466.78;5153872;27;20321;-79
2022/05/22 10:52:47;;;;;;;9.40;1.70;;;;;;;30.13;25.98;98468.69;5153409;27;20227;-79
2022/05/22 10:55:23;;;;;;;4.32;1.77;;;;;;;30.20;27.22;98479.81;5153583;27;20222;-85
2022/05/22 10:57:58;;;;;;;3.05;1.60;;;;;;;30.18;27.89;98468.72;5153739;27;20216;-85
2022/05/22 11:00:26;;;;;;;7.78;1.70;;;;;;;30.13;27.26;98482.66;5153593;27;20195;-87
2022/05/22 11:02:53;;;;;;;7.28;1.77;;;;;;;30.19;27.42;98465.03;5152479;27;20224;-86
2022/05/22 11:05:25;;;;;;;5.82;1.60;;;;;;;30.30;27.74;98456.16;5153527;27;20200;-89
2022/05/22 11:07:53;;;;;;;4.25;1.67;;;;;;;30.55;27.68;98463.44;5153937;27;20224;-84
2022/05/22 11:10:24;;;;;;;8.18;1.65;;;;;;;30.19;26.10;98472.94;5153124;27;20214;-84
2022/05/22 11:13:05;;;;;;;5.68;1.73;;;;;;;30.15;27.94;98458.69;5153352;27;20608;-85
2022/05/22 11:15:34;;;;;;;6.57;1.70;;;;;;;30.11;27.64;98457.63;5153075;27;20215;-85
2022/05/22 11:18:07;;;;;;;9.15;1.77;;;;;;;29.93;27.50;98456.97;5152788;27;20227;-85
2022/05/22 11:20:38;;;;;;;8.15;1.52;;;;;;;29.96;26.98;98469.63;5153155;27;20196;-88
2022/05/22 11:26:59;;;;;;;5.97;1.70;;;;;;;29.87;25.86;98457.94;5127058;27;21016;-86
2022/05/22 11:30:03;;;;;;;11.60;2.00;;;;;;;29.80;27.04;98462.66;5127936;27;20697;-84
2022/05/22 11:32:49;;;;;;;4.95;1.70;;;;;;;30.06;26.00;98460.22;5127747;27;20222;-83
2022/05/22 11:35:32;;;;;;;3.15;1.50;;;;;;;29.88;26.92;98454.28;5127897;27;20200;-84
2022/05/22 11:38:31;;;;;;;6.10;1.67;;;;;;;29.59;25.93;98460.84;5127718;27;20219;-84
2022/05/22 11:41:04;;;;;;;5.85;1.52;;;;;;;29.32;28.39;98457.19;5127868;27;20609;-82
2022/05/22 11:43:53;;;;;;;6.07;1.65;;;;;;;29.53;28.53;98447.63;5127729;27;20599;-88
2022/05/22 11:46:30;;;;;;;37.30;2.95;;;;;;;29.76;27.53;98461.56;5127826;27;20255;-88
2022/05/22 11:49:24;;;;;;;8.50;1.77;;;;;;;29.62;26.11;98465.63;5127740;27;20193;-87
2022/05/22 11:52:11;;;;;;;9.40;1.80;;;;;;;29.83;26.90;98456.88;5127312;27;20217;-91
2022/05/22 11:54:53;;;;;;;11.35;1.95;;;;;;;29.80;26.30;98453.94;5127405;27;20208;-83
2022/05/22 11:57:30;;;;;;;6.78;1.75;;;;;;;29.85;26.73;98454.78;5127401;27;20231;-87
2022/05/22 12:00:11;;;;;;;9.55;1.85;;;;;;;29.69;26.34;98451.22;5127245;27;20513;-86
2022/05/22 12:03:01;;;;;;;8.18;1.70;;;;;;;29.58;28.54;98456.63;5127129;27;20213;-86
2022/05/22 12:05:43;;;;;;;4.82;1.50;;;;;;;28.99;26.88;98447.56;5127333;27;20726;-89
2022/05/22 12:08:31;;;;;;;17.88;2.13;;;;;;;28.47;27.31;98449.81;5127169;27;20232;-86
2022/05/22 12:11:05;;;;;;;4.47;1.60;;;;;;;28.13;28.23;98444.59;5127185;27;20206;-88